Time;durP1;ratioP1;P1;durP2;ratioP2;P2;SDS_P1;SDS_P2;PMS_P1;PMS_P2;Temp;Humidity;BMP_temperature;BMP_pressure;BME280_temperature;BME280_humidity;BME280_pressure;Samples;Min_cycle;Max_cycle;Signal;HPM_P1;HPM_P2
2023/02/24 00:01:23;;;;;;;36.42;20.77;;;10.00;99.90;;;;;;5075628;28;20052;-65
2023/02/24 00:03:50;;;;;;;36.60;21.40;;;10.00;99.90;;;;;;5076510;28;20028;-65
2023/02/24 00:06:16;;;;;;;37.47;21.65;;;10.00;99.90;;;;;;5076103;28;20385;-65
2023/02/24 00:08:41;;;;;;;35.77;20.63;;;9.90;99.90;;;;;;5076114;28;20017;-65
2023/02/24 00:11:09;;;;;;;38.77;22.37;;;9.90;99.90;;;;;;5076398;28;20020;-67
2023/02/24 00:13:35;;;;;;;39.83;21.67;;;9.90;99.90;;;;;;5076612;28;20024;-65
2023/02/24 00:16:02;;;;;;;40.50;22.10;;;9.80;99.90;;;;;;5076245;28;20067;-65
2023/02/24 00:18:28;;;;;;;36.90;21.85;;;9.70;99.90;;;;;;5075697;28;20542;-65
2023/02/24 00:20:56;;;;;;;37.67;22.30;;;9.80;99.90;;;;;;5075863;28;20016;-65
2023/02/24 00:23:22;;;;;;;40.33;21.38;;;9.80;99.90;;;;;;5075820;28;20055;-65
2023/02/24 00:25:48;;;;;;;42.05;22.85;;;9.80;99.90;;;;;;5075729;28;20017;-65
2023/02/24 00:28:14;;;;;;;38.00;22.35;;;9.80;99.90;;;;;;5076047;28;20028;-66
2023/02/24 00:30:39;;;;;;;39.07;22.27;;;9.80;99.90;;;;;;5075641;28;20358;-66
2023/02/24 00:33:05;;;;;;;40.27;22.80;;;9.80;99.90;;;;;;5075289;28;20101;-65
2023/02/24 00:35:31;;;;;;;42.92;22.88;;;9.80;99.90;;;;;;5075916;28;20519;-65
2023/02/24 00:37:57;;;;;;;37.05;21.85;;;9.80;99.90;;;;;;5075550;28;20028;-65
2023/02/24 00:40:23;;;;;;;41.03;22.97;;;9.80;99.90;;;;;;5075658;28;20027;-65
2023/02/24 00:42:48;;;;;;;41.30;22.43;;;9.80;99.90;;;;;;5057900;28;20456;-65
2023/02/24 00:45:15;;;;;;;45.43;23.03;;;9.80;99.90;;;;;;5075512;28;20024;-65
2023/02/24 00:47:41;;;;;;;46.88;24.17;;;9.90;99.90;;;;;;5075284;28;20017;-65
2023/02/24 00:50:08;;;;;;;48.47;24.50;;;9.80;99.90;;;;;;5075610;28;20044;-65
2023/02/24 00:52:33;;;;;;;;;;;9.80;99.90;;;;;;5075971;28;20049;-65
2023/02/24 00:54:59;;;;;;;47.05;22.85;;;9.80;99.90;;;;;;5075163;28;20408;-65
2023/02/24 00:57:26;;;;;;;51.67;26.20;;;9.70;99.90;;;;;;5075289;28;20107;-65
2023/02/24 00:59:51;;;;;;;54.72;26.05;;;9.70;99.90;;;;;;5075199;28;20063;-65
2023/02/24 01:02:17;;;;;;;49.37;24.73;;;9.70;99.90;;;;;;5074833;28;20056;-66
2023/02/24 01:04:43;;;;;;;55.30;27.47;;;9.60;99.90;;;;;;5074635;28;20025;-65
2023/02/24 01:07:09;;;;;;;54.15;26.00;;;9.60;99.90;;;;;;5075174;28;20027;-65
2023/02/24 01:09:37;;;;;;;56.75;25.80;;;9.60;99.90;;;;;;5074343;28;20042;-65
2023/02/24 01:14:51;;;;;;;53.77;26.63;;;9.50;99.90;;;;;;5075220;28;20043;-64
2023/02/24 01:17:18;;;;;;;59.22;27.27;;;9.50;99.90;;;;;;5074149;28;20139;-64
2023/02/24 01:19:47;;;;;;;56.72;27.05;;;9.40;99.90;;;;;;5075259;28;20021;-65
2023/02/24 01:22:16;;;;;;;63.22;26.95;;;9.50;99.90;;;;;;5075047;28;20059;-65
2023/02/24 01:24:43;;;;;;;62.95;28.55;;;9.40;99.90;;;;;;5074690;28;20017;-66
2023/02/24 01:27:11;;;;;;;62.58;27.77;;;9.40;99.90;;;;;;5074960;28;20461;-66
2023/02/24 01:29:38;;;;;;;61.45;27.70;;;9.40;99.90;;;;;;5074564;28;20032;-66
2023/02/24 01:32:05;;;;;;;62.10;29.67;;;9.30;99.90;;;;;;5074316;28;20021;-65
2023/02/24 01:34:31;;;;;;;62.00;29.27;;;9.30;99.90;;;;;;5056631;28;20055;-65
2023/02/24 01:36:56;;;;;;;57.30;27.07;;;9.30;99.90;;;;;;5074414;28;20056;-65
2023/02/24 01:39:22;;;;;;;62.57;28.83;;;9.40;99.90;;;;;;5074690;28;20024;-65
2023/02/24 01:41:49;;;;;;;68.87;31.30;;;9.40;99.90;;;;;;5077296;28;20039;-66
2023/02/24 01:44:20;;;;;;;63.55;29.20;;;9.30;99.90;;;;;;5080453;28;20017;-66
2023/02/24 01:46:49;;;;;;;60.55;28.75;;;9.40;99.90;;;;;;5075796;28;20115;-64
2023/02/24 01:49:37;;;;;;;65.55;29.70;;;9.30;99.90;;;;;;5074471;28;20017;-65
2023/02/24 01:52:14;;;;;;;62.25;28.85;;;9.30;99.90;;;;;;5074082;28;20027;-66
2023/02/24 01:54:42;;;;;;;;;;;9.30;99.90;;;;;;5075637;28;20040;-66
2023/02/24 01:57:11;;;;;;;64.95;28.83;;;9.30;99.90;;;;;;5056285;28;19912;-65
2023/02/24 01:59:37;;;;;;;61.50;28.65;;;9.30;99.90;;;;;;5074140;28;20074;-67
2023/02/24 02:02:06;;;;;;;64.88;29.80;;;9.30;99.90;;;;;;5073627;28;20135;-65
2023/02/24 02:04:53;;;;;;;70.85;31.65;;;9.20;99.90;;;;;;5074067;28;20082;-66
2023/02/24 02:07:21;;;;;;;69.93;30.60;;;9.20;99.90;;;;;;5074244;28;20021;-65
2023/02/24 02:09:48;;;;;;;67.20;29.58;;;9.20;99.90;;;;;;5074048;28;20377;-66
2023/02/24 02:12:14;;;;;;;71.43;32.13;;;9.20;99.90;;;;;;5073948;28;20031;-66
2023/02/24 02:14:51;;;;;;;64.30;28.30;;;9.20;99.90;;;;;;5073086;28;20041;-65
2023/02/24 02:17:55;;;;;;;72.40;30.20;;;9.20;99.90;;;;;;5073407;28;20041;-64
2023/02/24 02:20:41;;;;;;;70.32;31.48;;;9.30;99.90;;;;;;5042291;28;20044;-66
2023/02/24 02:23:47;;;;;;;65.22;30.00;;;9.20;99.90;;;;;;5074094;28;20097;-66
2023/02/24 02:27:01;;;;;;;67.78;29.70;;;9.30;99.90;;;;;;5055838;28;20027;-66
2023/02/24 02:30:08;;;;;;;65.35;28.92;;;9.30;99.90;;;;;;5012429;28;20038;-66
2023/02/24 02:32:39;;;;;;;67.53;29.27;;;9.30;99.90;;;;;;5012282;28;20037;-65
2023/02/24 02:35:27;;;;;;;71.55;31.33;;;9.30;99.90;;;;;;5011878;28;20096;-65
2023/02/24 02:38:25;;;;;;;69.85;30.15;;;9.30;99.90;;;;;;5011924;28;20088;-65
2023/02/24 02:41:02;;;;;;;65.55;29.67;;;9.30;99.90;;;;;;4953491;29;20039;-65
2023/02/24 02:43:55;;;;;;;73.47;30.30;;;9.30;99.90;;;;;;4953588;29;20043;-65
2023/02/24 02:46:33;;;;;;;70.22;29.80;;;9.30;99.90;;;;;;4956191;28;20058;-65
2023/02/24 02:49:12;;;;;;;68.30;28.27;;;9.30;99.90;;;;;;4960369;29;20031;-65
2023/02/24 02:51:50;;;;;;;75.03;30.73;;;9.30;99.90;;;;;;4956153;29;20054;-65
2023/02/24 02:54:26;;;;;;;66.90;29.85;;;9.30;99.90;;;;;;4954651;29;20086;-65
2023/02/24 02:57:04;;;;;;;69.82;30.25;;;9.30;99.90;;;;;;4954022;29;20027;-65
2023/02/24 02:59:33;;;;;;;70.95;29.67;;;9.20;99.90;;;;;;4953391;29;20102;-65
2023/02/24 03:02:10;;;;;;;70.30;30.20;;;9.20;99.90;;;;;;4953219;29;20031;-64
2023/02/24 03:04:41;;;;;;;71.30;29.52;;;9.20;99.90;;;;;;4953380;28;20071;-66
2023/02/24 03:07:07;;;;;;;69.70;29.35;;;9.20;99.90;;;;;;4953458;29;20354;-65
2023/02/24 03:09:38;;;;;;;69.28;29.30;;;9.20;99.90;;;;;;4952785;29;20027;-65
2023/02/24 03:12:08;;;;;;;68.03;28.15;;;9.30;99.90;;;;;;4954199;29;20035;-65
2023/02/24 03:14:43;;;;;;;70.43;28.92;;;9.30;99.90;;;;;;4969097;28;20058;-65
2023/02/24 03:17:16;;;;;;;67.97;28.83;;;9.30;99.90;;;;;;5004527;28;20558;-65
2023/02/24 03:19:44;;;;;;;72.80;31.63;;;9.30;99.90;;;;;;5072684;28;20029;-66
2023/02/24 03:22:18;;;;;;;70.90;29.77;;;9.30;99.90;;;;;;5072630;28;20082;-66
2023/02/24 03:24:44;;;;;;;70.10;30.38;;;9.30;99.90;;;;;;5073104;28;20474;-65
2023/02/24 03:27:24;;;;;;;69.55;27.45;;;9.20;99.90;;;;;;5075086;28;20025;-65
2023/02/24 03:29:57;;;;;;;70.13;30.15;;;9.30;99.90;;;;;;5077528;28;20024;-66
2023/02/24 03:32:31;;;;;;;68.55;29.60;;;9.20;99.90;;;;;;5077408;28;20024;-65
2023/02/24 03:35:00;;;;;;;70.32;28.88;;;9.20;99.90;;;;;;5076070;28;20051;-65
2023/02/24 03:37:28;;;;;;;67.45;29.23;;;9.20;99.90;;;;;;5058979;28;20028;-65
2023/02/24 03:39:57;;;;;;;69.38;28.55;;;9.20;99.90;;;;;;5076979;28;20032;-64
2023/02/24 03:42:28;;;;;;;66.05;28.38;;;9.20;99.90;;;;;;5076550;28;20032;-65
2023/02/24 03:44:57;;;;;;;68.75;29.27;;;9.30;99.90;;;;;;5076776;28;20028;-65
2023/02/24 03:47:23;;;;;;;70.97;28.80;;;9.20;99.90;;;;;;5076884;28;20016;-65
2023/02/24 03:49:49;;;;;;;67.63;28.85;;;9.30;99.90;;;;;;5076855;28;20108;-65
2023/02/24 03:52:36;;;;;;;69.72;28.70;;;9.30;99.90;;;;;;5058834;28;20028;-66
2023/02/24 03:55:29;;;;;;;69.93;29.45;;;9.20;99.90;;;;;;5076981;28;20093;-66
2023/02/24 03:58:20;;;;;;;63.53;27.23;;;9.20;99.90;;;;;;5076346;28;20025;-65
2023/02/24 04:01:10;;;;;;;72.00;30.02;;;9.10;99.90;;;;;;5076538;28;20021;-65
2023/02/24 04:04:13;;;;;;;69.82;29.90;;;9.20;99.90;;;;;;5076244;28;20028;-65
2023/02/24 04:07:12;;;;;;;75.07;29.55;;;9.20;99.90;;;;;;5076566;28;20473;-66
2023/02/24 04:09:55;;;;;;;68.85;28.55;;;9.20;99.90;;;;;;5076288;28;20389;-66
2023/02/24 04:12:35;;;;;;;63.90;27.38;;;9.20;99.90;;;;;;5076534;28;20106;-66
2023/02/24 04:15:36;;;;;;;66.72;29.00;;;9.20;99.90;;;;;;5076007;28;20037;-65
2023/02/24 04:18:31;;;;;;;65.50;28.35;;;9.10;99.90;;;;;;5065139;28;20036;-65
2023/02/24 04:21:00;;;;;;;63.38;27.60;;;9.10;99.90;;;;;;5014297;28;20526;-65
2023/02/24 04:23:32;;;;;;;64.47;27.35;;;9.10;99.90;;;;;;5014201;28;20185;-65
2023/02/24 04:25:59;;;;;;;66.70;28.33;;;9.20;99.90;;;;;;5014459;28;20034;-65
2023/02/24 04:28:28;;;;;;;61.55;26.52;;;9.10;99.90;;;;;;5014045;28;20045;-65
2023/02/24 04:30:59;;;;;;;66.47;27.92;;;9.10;99.90;;;;;;5014388;28;20038;-65
2023/02/24 04:33:25;;;;;;;63.65;28.23;;;9.20;99.90;;;;;;5014556;28;20436;-65
2023/02/24 04:35:50;;;;;;;62.27;25.93;;;9.20;99.90;;;;;;5014393;28;20101;-65
2023/02/24 04:38:19;;;;;;;61.60;27.00;;;9.20;99.90;;;;;;5013201;28;20053;-65
2023/02/24 04:40:45;;;;;;;58.90;26.73;;;9.20;99.90;;;;;;5014167;28;20114;-65
2023/02/24 04:43:11;;;;;;;67.13;26.37;;;9.10;99.90;;;;;;5013961;28;20109;-65
2023/02/24 04:45:39;;;;;;;62.92;25.88;;;9.10;99.90;;;;;;5014186;28;20492;-65
2023/02/24 04:48:09;;;;;;;62.05;26.60;;;9.10;99.90;;;;;;5013438;28;20026;-65
2023/02/24 04:50:35;;;;;;;63.35;26.58;;;9.00;99.90;;;;;;5014030;28;20057;-65
2023/02/24 04:53:06;;;;;;;64.03;26.45;;;9.00;99.90;;;;;;5013734;28;20080;-65
2023/02/24 04:55:38;;;;;;;64.40;26.23;;;9.00;99.90;;;;;;5013679;28;20026;-65
2023/02/24 04:58:05;;;;;;;60.92;26.20;;;9.00;99.90;;;;;;5047849;28;20037;-65
2023/02/24 05:00:34;;;;;;;61.72;25.27;;;9.00;99.90;;;;;;5055802;28;20373;-65
2023/02/24 05:03:02;;;;;;;63.35;27.45;;;9.00;99.90;;;;;;5036983;28;20029;-66
2023/02/24 05:05:32;;;;;;;65.60;26.40;;;9.00;99.90;;;;;;5055035;28;20037;-65
2023/02/24 05:08:02;;;;;;;65.18;26.33;;;9.00;99.90;;;;;;5054969;28;20074;-65
2023/02/24 05:10:33;;;;;;;65.88;26.17;;;9.10;99.90;;;;;;5055017;28;20040;-66
2023/02/24 05:13:00;;;;;;;59.53;26.25;;;9.10;99.90;;;;;;5058947;28;20029;-65
2023/02/24 05:15:30;;;;;;;62.95;25.15;;;9.10;99.90;;;;;;5075271;28;20032;-65
2023/02/24 05:18:00;;;;;;;60.17;24.67;;;9.10;99.90;;;;;;5074876;28;20047;-65
2023/02/24 05:23:11;;;;;;;62.95;26.08;;;8.90;99.90;;;;;;5075031;28;20397;-65
2023/02/24 05:25:37;;;;;;;61.47;26.17;;;8.90;99.90;;;;;;5074625;28;20021;-65
2023/02/24 05:28:06;;;;;;;59.17;23.50;;;8.80;99.90;;;;;;5075046;28;20031;-65
2023/02/24 05:30:31;;;;;;;60.05;24.52;;;8.90;99.90;;;;;;5074702;28;20036;-65
2023/02/24 05:32:57;;;;;;;62.47;25.23;;;8.90;99.90;;;;;;5074293;28;20455;-65
2023/02/24 05:35:23;;;;;;;61.97;24.27;;;8.90;99.90;;;;;;5074529;28;20477;-64
2023/02/24 05:37:50;;;;;;;59.78;24.45;;;8.90;99.90;;;;;;5074438;28;20044;-65
2023/02/24 05:40:18;;;;;;;63.97;24.50;;;8.90;99.90;;;;;;5074409;28;20085;-66
2023/02/24 05:42:44;;;;;;;56.95;24.27;;;8.90;99.90;;;;;;5074399;28;20078;-65
2023/02/24 05:45:10;;;;;;;59.40;24.90;;;8.90;99.90;;;;;;5073183;28;20091;-64
2023/02/24 05:47:36;;;;;;;56.90;24.15;;;8.90;99.90;;;;;;5054483;28;20028;-65
2023/02/24 05:50:02;;;;;;;51.22;21.63;;;8.80;99.90;;;;;;5074355;28;20027;-65
2023/02/24 05:52:28;;;;;;;51.67;22.67;;;8.80;99.90;;;;;;5076575;28;20032;-66
2023/02/24 05:54:54;;;;;;;51.70;22.17;;;8.90;99.90;;;;;;5079296;28;20102;-66
2023/02/24 05:57:20;;;;;;;58.23;23.60;;;8.90;99.90;;;;;;5077944;28;20029;-65
2023/02/24 05:59:49;;;;;;;;;;;8.80;99.90;;;;;;5056979;28;20021;-64
2023/02/24 06:02:25;;;;;;;57.38;22.35;;;8.80;99.90;;;;;;5054935;28;19908;-65
2023/02/24 06:04:52;;;;;;;52.60;22.02;;;8.80;99.90;;;;;;5053844;28;20021;-65
2023/02/24 06:07:23;;;;;;;52.47;22.95;;;8.70;99.90;;;;;;5059196;28;20025;-66
2023/02/24 06:09:52;;;;;;;60.28;23.55;;;8.80;99.90;;;;;;5057896;28;20028;-66
2023/02/24 06:12:20;;;;;;;57.75;22.30;;;8.90;99.90;;;;;;5054535;28;20131;-66
2023/02/24 06:14:46;;;;;;;55.78;22.42;;;8.90;99.90;;;;;;5054283;28;20791;-65
2023/02/24 06:17:14;;;;;;;;;;;8.90;99.90;;;;;;5056221;28;20750;-64
2023/02/24 06:19:40;;;;;;;51.05;20.60;;;8.90;99.90;;;;;;5073630;28;19924;-65
2023/02/24 06:22:09;;;;;;;56.38;21.98;;;9.00;99.90;;;;;;5073827;28;20029;-65
2023/02/24 06:24:35;;;;;;;56.47;21.75;;;9.00;99.90;;;;;;5073622;28;20473;-66
2023/02/24 06:27:08;;;;;;;51.80;21.70;;;9.00;99.90;;;;;;5055527;28;20024;-64
2023/02/24 06:29:35;;;;;;;56.63;22.35;;;8.90;99.90;;;;;;5074074;28;20089;-65
2023/02/24 06:32:07;;;;;;;52.58;22.60;;;8.90;99.90;;;;;;5073684;28;20028;-64
2023/02/24 06:34:33;;;;;;;54.25;21.00;;;8.90;99.90;;;;;;5073660;28;20024;-65
2023/02/24 06:36:59;;;;;;;51.00;21.80;;;9.00;99.90;;;;;;5074139;28;20469;-65
2023/02/24 06:39:25;;;;;;;57.40;22.13;;;9.00;99.90;;;;;;5073921;28;20115;-66
2023/02/24 06:41:51;;;;;;;60.60;24.70;;;9.00;99.90;;;;;;5067613;28;20036;-66
2023/02/24 06:44:17;;;;;;;;;;;8.90;99.90;;;;;;5055732;28;20074;-66
2023/02/24 06:46:44;;;;;;;54.65;22.23;;;8.90;99.90;;;;;;5073163;28;19908;-66
2023/02/24 06:49:11;;;;;;;65.93;22.55;;;8.90;99.90;;;;;;5065953;28;20021;-66
2023/02/24 06:51:37;;;;;;;;;;;9.00;99.90;;;;;;5069357;28;20453;-66
2023/02/24 06:54:05;;;;;;;53.42;22.23;;;9.00;99.90;;;;;;5073476;28;19904;-65
2023/02/24 06:56:37;;;;;;;59.08;21.17;;;9.10;99.90;;;;;;5068824;28;20028;-64
2023/02/24 06:59:03;;;;;;;54.85;22.85;;;9.10;99.90;;;;;;5069268;28;20032;-63
2023/02/24 07:01:29;;;;;;;;;;;9.10;99.90;;;;;;5056905;28;20505;-65
2023/02/24 07:06:34;;;;;;;51.72;20.95;;;9.20;99.90;;;;;;5073096;28;20028;-66
2023/02/24 07:09:04;;;;;;;55.45;21.83;;;9.30;99.90;;;;;;5073134;28;20027;-66
2023/02/24 07:11:30;;;;;;;52.15;21.85;;;9.30;99.90;;;;;;5073406;28;20028;-65
2023/02/24 07:13:57;;;;;;;57.75;21.88;;;9.20;99.90;;;;;;5072245;28;20028;-65
2023/02/24 07:16:23;;;;;;;50.47;21.10;;;9.10;99.90;;;;;;5056010;28;20577;-65
2023/02/24 07:18:53;;;;;;;53.58;22.70;;;9.10;99.90;;;;;;5051732;28;20031;-65
2023/02/24 07:21:19;;;;;;;51.42;20.17;;;9.20;99.90;;;;;;5054024;28;20363;-66
2023/02/24 07:23:48;;;;;;;50.78;21.10;;;9.20;99.90;;;;;;5053902;28;20071;-66
2023/02/24 07:26:17;;;;;;;56.00;21.17;;;9.20;99.90;;;;;;5053262;28;20045;-66
2023/02/24 07:28:44;;;;;;;51.15;21.52;;;9.30;99.90;;;;;;5053428;28;20100;-66
2023/02/24 07:31:18;;;;;;;50.55;20.65;;;9.30;99.90;;;;;;5068615;28;20445;-66
2023/02/24 07:33:45;;;;;;;53.20;21.42;;;9.50;99.90;;;;;;5072910;28;20025;-66
2023/02/24 07:36:17;;;;;;;53.95;21.38;;;9.40;99.90;;;;;;5072736;28;20025;-66
2023/02/24 07:38:43;;;;;;;52.05;20.73;;;9.40;99.90;;;;;;5073074;28;20154;-66
2023/02/24 07:41:11;;;;;;;49.90;19.55;;;9.50;99.90;;;;;;5072588;28;20017;-66
2023/02/24 07:43:38;;;;;;;47.13;19.45;;;9.50;99.90;;;;;;5072678;28;20067;-66
2023/02/24 07:46:15;;;;;;;49.67;19.35;;;9.60;99.90;;;;;;5072433;28;20074;-66
2023/02/24 07:48:41;;;;;;;47.05;19.08;;;9.70;99.90;;;;;;5072926;28;20024;-66
2023/02/24 07:51:15;;;;;;;50.67;21.02;;;9.80;99.90;;;;;;5072851;28;20048;-66
2023/02/24 07:53:42;;;;;;;50.72;21.90;;;9.70;99.90;;;;;;5071563;28;20052;-67
2023/02/24 07:56:17;;;;;;;57.85;22.90;;;9.60;99.90;;;;;;5072895;28;20016;-66
2023/02/24 07:58:44;;;;;;;52.92;21.88;;;9.60;99.90;;;;;;5072673;28;20424;-66
2023/02/24 08:01:21;;;;;;;52.92;21.98;;;9.70;99.90;;;;;;5072707;28;20028;-66
2023/02/24 08:03:51;;;;;;;53.63;21.73;;;9.70;99.90;;;;;;5054359;28;20033;-66
2023/02/24 08:06:25;;;;;;;49.97;19.80;;;9.60;99.90;;;;;;5060685;28;20009;-65
2023/02/24 08:08:58;;;;;;;51.70;20.83;;;9.60;99.90;;;;;;5048810;28;20033;-66
2023/02/24 08:11:35;;;;;;;48.72;20.63;;;9.70;99.90;;;;;;5052490;28;20086;-67
2023/02/24 08:14:01;;;;;;;;;;;9.70;99.90;;;;;;5071515;28;20052;-67
2023/02/24 08:16:38;;;;;;;53.08;20.83;;;9.90;99.90;;;;;;5051328;28;19920;-67
2023/02/24 08:19:05;;;;;;;49.17;20.70;;;9.90;99.90;;;;;;5076162;28;20021;-68
2023/02/24 08:21:36;;;;;;;51.08;20.00;;;10.00;99.90;;;;;;5058014;28;20369;-65
2023/02/24 08:24:03;;;;;;;49.42;21.15;;;10.10;99.90;;;;;;5076081;28;20021;-67
2023/02/24 08:26:30;;;;;;;56.38;21.80;;;10.00;99.90;;;;;;5075874;28;20457;-66
2023/02/24 08:28:56;;;;;;;50.35;20.88;;;10.00;99.90;;;;;;5075773;28;20108;-65
2023/02/24 08:31:22;;;;;;;53.33;22.05;;;10.00;99.90;;;;;;5076066;28;20020;-65
2023/02/24 08:33:47;;;;;;;50.77;21.03;;;10.00;99.90;;;;;;5075685;28;20072;-65
2023/02/24 08:36:20;;;;;;;50.50;21.30;;;10.00;99.90;;;;;;5073738;28;20163;-66
2023/02/24 08:38:50;;;;;;;52.45;21.88;;;10.00;99.90;;;;;;5076116;28;20356;-65
2023/02/24 08:41:19;;;;;;;47.50;21.00;;;9.90;99.90;;;;;;5075844;28;20029;-65
2023/02/24 08:43:46;;;;;;;58.55;20.95;;;9.90;99.90;;;;;;5075718;28;20094;-65
2023/02/24 08:46:17;;;;;;;50.30;20.75;;;9.80;99.90;;;;;;5075619;28;20019;-65
2023/02/24 08:48:54;;;;;;;45.25;19.42;;;9.70;99.90;;;;;;5072638;28;20017;-65
2023/02/24 08:51:33;;;;;;;;;;;9.70;99.90;;;;;;5071817;28;20536;-65
2023/02/24 08:54:00;;;;;;;48.08;19.70;;;9.70;99.90;;;;;;5076662;28;19904;-65
2023/02/24 08:56:29;;;;;;;48.80;19.88;;;9.80;99.90;;;;;;5075814;28;20035;-66
2023/02/24 08:58:57;;;;;;;43.45;18.23;;;9.90;99.90;;;;;;5073781;28;20043;-66
2023/02/24 09:01:33;;;;;;;50.58;24.25;;;9.80;99.90;;;;;;5056527;28;20082;-66
2023/02/24 09:04:02;;;;;;;45.67;20.00;;;9.90;99.90;;;;;;5075704;28;20063;-66
2023/02/24 09:06:38;;;;;;;39.95;17.88;;;9.90;99.90;;;;;;5080831;28;20064;-68
2023/02/24 09:09:16;;;;;;;44.72;18.30;;;9.80;99.90;;;;;;5075547;28;20027;-68
2023/02/24 09:11:48;;;;;;;40.42;19.15;;;9.80;99.90;;;;;;5076467;28;20040;-68
2023/02/24 09:14:16;;;;;;;40.83;19.00;;;9.90;99.90;;;;;;5075456;28;20362;-67
2023/02/24 09:17:00;;;;;;;37.97;17.02;;;10.10;99.90;;;;;;5068626;28;20429;-67
2023/02/24 09:22:30;;;;;;;41.22;18.08;;;10.20;99.90;;;;;;5075573;28;20056;-66
2023/02/24 09:25:17;;;;;;;36.15;16.80;;;10.10;99.90;;;;;;5071276;28;20025;-67
2023/02/24 09:27:51;;;;;;;40.33;17.95;;;10.10;99.90;;;;;;5054157;28;20027;-67
2023/02/24 09:30:36;;;;;;;40.40;18.50;;;10.10;99.90;;;;;;5063966;28;20441;-67
2023/02/24 09:33:07;;;;;;;42.33;19.10;;;10.00;99.90;;;;;;5061990;28;20031;-68
2023/02/24 09:35:35;;;;;;;39.97;17.73;;;9.90;99.90;;;;;;5068333;28;20099;-67
2023/02/24 09:38:04;;;;;;;42.20;18.10;;;9.80;99.90;;;;;;5066666;28;20025;-68
2023/02/24 09:40:47;;;;;;;45.13;18.60;;;9.80;99.90;;;;;;5068180;28;20029;-67
2023/02/24 09:43:18;;;;;;;38.47;17.52;;;9.80;99.90;;;;;;5067808;28;20036;-68
2023/02/24 09:46:00;;;;;;;36.50;17.02;;;9.70;99.90;;;;;;5066070;28;20087;-68
2023/02/24 09:48:42;;;;;;;41.13;17.80;;;9.80;99.90;;;;;;5064000;28;20170;-67
2023/02/24 09:51:20;;;;;;;38.60;17.65;;;9.90;99.90;;;;;;5074866;28;20028;-67
2023/02/24 09:53:53;;;;;;;41.58;17.90;;;9.90;99.90;;;;;;5057292;28;20045;-68
2023/02/24 09:56:41;;;;;;;40.58;17.98;;;10.00;99.90;;;;;;5057014;28;20021;-68
2023/02/24 09:59:12;;;;;;;;;;;10.10;99.90;;;;;;5066848;28;20032;-67
2023/02/24 10:02:00;;;;;;;44.97;17.58;;;10.10;99.90;;;;;;5067956;28;19920;-67
2023/02/24 10:04:47;;;;;;;44.30;18.25;;;10.10;99.90;;;;;;5073897;28;20020;-67
2023/02/24 10:07:18;;;;;;;43.50;18.17;;;10.20;99.90;;;;;;5073772;28;20020;-67
2023/02/24 10:09:54;;;;;;;48.33;18.70;;;10.00;99.90;;;;;;5073621;28;20118;-67
2023/02/24 10:12:30;;;;;;;47.72;18.88;;;10.10;99.90;;;;;;5074170;28;20070;-67
2023/02/24 10:15:17;;;;;;;40.47;18.05;;;10.10;99.90;;;;;;5074174;28;20465;-66
2023/02/24 10:17:55;;;;;;;44.83;19.42;;;10.20;99.90;;;;;;5074399;28;20037;-67
2023/02/24 10:20:38;;;;;;;44.75;20.10;;;10.20;99.90;;;;;;5074640;28;20035;-68
2023/02/24 10:23:31;;;;;;;42.67;19.40;;;10.30;99.90;;;;;;5056252;28;20103;-67
2023/02/24 10:26:20;;;;;;;39.53;18.45;;;10.40;99.90;;;;;;5055319;28;20020;-65
2023/02/24 10:28:56;;;;;;;41.47;18.33;;;10.60;99.90;;;;;;5072617;28;20036;-67
2023/02/24 10:31:46;;;;;;;42.45;17.95;;;10.70;99.90;;;;;;5073768;28;20032;-66
2023/02/24 10:34:24;;;;;;;37.25;17.27;;;10.70;99.90;;;;;;5073572;28;20106;-66
2023/02/24 10:36:50;;;;;;;39.60;16.15;;;10.60;99.90;;;;;;5054922;28;20021;-67
2023/02/24 10:39:24;;;;;;;37.90;17.20;;;10.70;99.90;;;;;;5073615;28;20024;-67
2023/02/24 10:41:56;;;;;;;37.53;16.08;;;10.60;99.90;;;;;;5073230;28;20115;-67
2023/02/24 10:44:34;;;;;;;37.15;17.60;;;10.60;99.90;;;;;;5072494;28;20028;-66
2023/02/24 10:47:11;;;;;;;40.03;18.20;;;10.70;99.90;;;;;;5073505;28;20024;-67
2023/02/24 10:49:55;;;;;;;41.45;17.70;;;10.80;99.90;;;;;;5065575;28;20032;-67
2023/02/24 10:52:35;;;;;;;40.97;18.67;;;10.90;99.90;;;;;;5073286;28;20028;-68
2023/02/24 10:55:07;;;;;;;52.35;20.35;;;10.90;99.90;;;;;;5073087;28;20477;-67
2023/02/24 10:57:59;;;;;;;47.47;19.45;;;11.10;99.90;;;;;;5073594;28;20024;-66
2023/02/24 11:03:24;;;;;;;47.10;22.17;;;11.40;99.90;;;;;;5064671;28;20042;-67
2023/02/24 11:06:05;;;;;;;52.28;21.83;;;11.40;99.90;;;;;;5066090;28;20035;-68
2023/02/24 11:09:42;;;;;;;44.95;20.08;;;11.60;99.90;;;;;;5055081;28;20029;-68
2023/02/24 11:17:13;;;;;;;48.70;22.08;;;11.80;99.90;;;;;;5043595;28;20370;-67
2023/02/24 11:17:16;;;;;;;50.75;23.15;;;11.50;99.90;;;;;;5054231;28;20095;-65
2023/02/24 11:19:53;;;;;;;49.22;21.27;;;11.90;99.90;;;;;;5053743;28;20021;-65
2023/02/24 11:22:23;;;;;;;;;;;12.30;99.90;;;;;;5054164;28;20029;-65
2023/02/24 11:24:50;;;;;;;50.80;23.20;;;12.60;99.90;;;;;;5052804;28;20000;-64
2023/02/24 11:27:19;;;;;;;55.85;23.73;;;12.80;99.90;;;;;;5065693;28;20432;-65
2023/02/24 11:30:26;;;;;;;54.90;25.02;;;12.90;99.90;;;;;;5073873;28;20020;-65
2023/02/24 11:33:08;;;;;;;46.53;23.13;;;12.90;99.90;;;;;;5019367;28;20131;-65
2023/02/24 11:36:04;;;;;;;48.13;23.42;;;13.00;99.90;;;;;;5072470;28;20016;-64
2023/02/24 11:38:59;;;;;;;49.83;22.73;;;12.80;99.90;;;;;;5073038;28;20523;-64
2023/02/24 11:41:29;;;;;;;45.95;21.10;;;12.50;99.90;;;;;;5034668;28;20149;-64
2023/02/24 11:44:27;;;;;;;51.40;23.05;;;12.30;99.90;;;;;;5052484;28;20033;-65
2023/02/24 11:46:58;;;;;;;53.58;23.10;;;12.30;99.90;;;;;;5052965;28;20028;-65
2023/02/24 11:49:36;;;;;;;49.75;23.67;;;12.30;99.90;;;;;;5057089;28;20100;-65
2023/02/24 11:52:05;;;;;;;47.35;22.75;;;12.10;99.90;;;;;;5056600;28;20021;-65
2023/02/24 11:54:43;;;;;;;53.00;24.40;;;12.10;99.90;;;;;;5056648;28;20186;-65
2023/02/24 11:57:20;;;;;;;47.25;21.52;;;12.20;99.90;;;;;;5056616;28;20086;-65
2023/02/24 11:59:48;;;;;;;;;;;12.20;99.90;;;;;;5057056;28;20021;-66
2023/02/24 12:02:58;;;;;;;51.92;22.30;;;12.00;99.90;;;;;;5055069;28;19909;-66
2023/02/24 12:05:27;;;;;;;49.08;21.50;;;12.30;99.90;;;;;;5056266;28;20075;-65
2023/02/24 12:07:58;;;;;;;45.33;21.98;;;12.50;99.90;;;;;;5056226;28;20021;-65
2023/02/24 12:10:27;;;;;;;46.60;22.48;;;12.40;99.90;;;;;;5068590;28;20024;-64
2023/02/24 12:13:17;;;;;;;49.50;22.00;;;12.40;99.90;;;;;;5076138;28;20033;-64
2023/02/24 12:16:01;;;;;;;48.33;22.02;;;12.10;99.90;;;;;;5076077;28;20083;-64
2023/02/24 12:18:36;;;;;;;47.88;21.92;;;12.30;99.90;;;;;;5076281;28;20051;-65
2023/02/24 12:21:17;;;;;;;43.72;20.80;;;12.30;99.90;;;;;;5076249;28;20021;-65
2023/02/24 12:23:46;;;;;;;43.05;20.80;;;12.40;99.90;;;;;;5076161;28;20481;-64
2023/02/24 12:26:46;;;;;;;46.15;22.33;;;12.40;99.90;;;;;;5074567;28;20028;-65
2023/02/24 12:29:42;;;;;;;44.35;20.52;;;12.30;99.90;;;;;;5058353;28;20043;-64
2023/02/24 12:32:34;;;;;;;45.15;21.75;;;12.10;99.90;;;;;;5076035;28;20056;-65
2023/02/24 12:35:23;;;;;;;47.50;20.58;;;12.10;99.90;;;;;;5072851;28;20029;-64
2023/02/24 12:38:02;;;;;;;46.72;21.27;;;11.90;99.90;;;;;;5075841;28;20074;-65
2023/02/24 12:40:40;;;;;;;49.05;22.20;;;12.00;99.90;;;;;;5074918;28;20086;-66
2023/02/24 12:43:12;;;;;;;48.15;22.40;;;12.00;99.90;;;;;;5071201;28;20032;-65
2023/02/24 12:46:04;;;;;;;49.88;23.27;;;12.20;99.90;;;;;;5055870;28;20036;-66
2023/02/24 12:48:32;;;;;;;53.25;23.50;;;12.00;99.90;;;;;;5056096;28;20056;-65
2023/02/24 12:51:04;;;;;;;50.60;22.92;;;12.00;99.90;;;;;;5037690;28;20066;-65
2023/02/24 12:53:42;;;;;;;49.03;22.45;;;12.00;99.90;;;;;;5068068;28;20426;-65
2023/02/24 12:56:23;;;;;;;51.63;22.83;;;11.90;99.90;;;;;;5075242;28;20442;-64
2023/02/24 12:59:01;;;;;;;55.75;23.23;;;12.00;99.90;;;;;;5073783;28;20052;-64
2023/02/24 13:01:33;;;;;;;51.22;21.85;;;11.90;99.90;;;;;;5075863;28;20031;-65
2023/02/24 13:04:25;;;;;;;47.33;22.05;;;11.90;99.90;;;;;;5075676;28;20051;-65
2023/02/24 13:07:14;;;;;;;51.40;23.13;;;11.80;99.90;;;;;;5076302;28;20036;-65
2023/02/24 13:09:56;;;;;;;49.00;21.70;;;11.90;99.90;;;;;;5075645;28;20021;-64
2023/02/24 13:12:27;;;;;;;48.28;21.90;;;11.80;99.90;;;;;;5075162;28;20016;-65
2023/02/24 13:14:53;;;;;;;41.97;20.73;;;12.10;99.90;;;;;;5075031;28;20481;-64
2023/02/24 13:17:22;;;;;;;48.70;21.95;;;12.20;99.90;;;;;;5075535;28;20035;-64
2023/02/24 13:19:50;;;;;;;47.38;22.48;;;12.10;99.90;;;;;;5075295;28;20021;-64
2023/02/24 13:22:19;;;;;;;52.08;22.77;;;12.20;99.90;;;;;;5074379;28;20040;-64
2023/02/24 13:25:15;;;;;;;51.88;22.23;;;12.20;99.90;;;;;;5074560;28;20021;-64
2023/02/24 13:27:42;;;;;;;49.53;22.73;;;12.00;99.90;;;;;;5073951;28;20041;-65